MHLM/SAP METAR and TAF weather

Enter ICAO airport designator
Station Type Date Time Source
MHLM METAR 2019/10/23 06:00 UTC NOAA

MHLM 230600Z 25005KT 9999 SCT025 BKN080 25/23 Q1011 A2986 NOSIG


Station Type Date Time Source
MHLM Decoded METAR 2019/10/23 06:00 UTC NOAA

La Mesa San Pedro Sula , Honduras (MHLM) 15-27N 087-56W 31M
Oct 23, 2019 - 02:00 AM EDT / 2019.10.23 0600 UTC
Wind: from the WSW (250 degrees) at 6 MPH (5 KT):0
Visibility: greater than 7 mile(s):0
Sky conditions: mostly cloudy
Temperature: 77 F (25 C)
Dew Point: 73 F (23 C)
Relative Humidity: 88%
Pressure (altimeter): 29.86 in. Hg (1011 hPa)
ob: MHLM 230600Z 25005KT 9999 SCT025 BKN080 25/23 Q1011 A2986 NOSIG
cycle: 6

Station Type Date Time Source
MHLM TAF 2019/10/23 06:59 UTC NOAA

TAF MHLM 230425Z 2306/2406 00000KT 8000 VCSH FEW024 BKN080 TX31/2321Z TN24/2312Z
BECMG 2310/2312 9999 NSW SCT024
BECMG 2315/2317 17004KT SCT026 BKN080
BECMG 2321/2323 02008KT 7000 TSRA SCT028CB BKN080
BECMG 2402/2404 27004KT 8000 VCSH SCT026 SCT080

Example: see airport list